Time;durP1;ratioP1;P1;durP2;ratioP2;P2;SDS_P1;SDS_P2;PMS_P1;PMS_P2;Temp;Humidity;BMP_temperature;BMP_pressure;BME280_temperature;BME280_humidity;BME280_pressure;Samples;Min_cycle;Max_cycle;Signal;HPM_P1;HPM_P2
2022/12/29 00:01:52;;;;;;;2.50;1.10;;;11.50;33.70;;;;;;4993943;28;20197;-73
2022/12/29 00:04:18;;;;;;;2.60;1.20;;;11.70;34.70;;;;;;4980276;28;20563;-73
2022/12/29 00:06:44;;;;;;;2.70;1.30;;;11.90;33.60;;;;;;4990493;28;20444;-73
2022/12/29 00:09:13;;;;;;;2.60;1.20;;;12.10;33.00;;;;;;4986132;28;20465;-73
2022/12/29 00:11:39;;;;;;;2.50;1.10;;;12.20;33.30;;;;;;4989981;28;20198;-73
2022/12/29 00:16:49;;;;;;;2.60;1.20;;;12.30;32.50;;;;;;4986789;28;20452;-73
2022/12/29 00:36:27;;;;;;;3.10;1.40;;;12.80;31.80;;;;;;4986682;28;20503;-73
2022/12/29 00:44:38;;;;;;;2.60;1.20;;;12.50;33.10;;;;;;4982139;28;20541;-73
2022/12/29 00:47:04;;;;;;;2.70;1.40;;;12.40;32.40;;;;;;4986977;28;20563;-73
2022/12/29 00:49:30;;;;;;;2.60;1.23;;;12.30;32.80;;;;;;4987326;28;20198;-73
2022/12/29 00:51:57;;;;;;;2.50;1.20;;;12.00;33.30;;;;;;4985635;28;21020;-73
2022/12/29 00:54:23;;;;;;;2.63;1.20;;;11.90;34.10;;;;;;4981835;28;20285;-73
2022/12/29 00:56:50;;;;;;;2.50;1.10;;;11.90;33.20;;;;;;4985142;28;20567;-73
2022/12/29 00:59:16;;;;;;;2.60;1.20;;;12.10;33.90;;;;;;4985651;28;20269;-73
2022/12/29 01:01:42;;;;;;;2.60;1.20;;;12.10;33.20;;;;;;4986689;28;20472;-73
2022/12/29 01:04:09;;;;;;;2.70;1.30;;;12.50;33.40;;;;;;4985874;28;22282;-73
2022/12/29 01:06:37;;;;;;;2.70;1.33;;;12.40;32.50;;;;;;4986128;28;21259;-73
2022/12/29 01:11:49;;;;;;;2.57;1.13;;;12.40;32.90;;;;;;4991745;28;20483;-72
2022/12/29 01:14:15;;;;;;;2.60;1.17;;;12.40;33.00;;;;;;4991591;28;20963;-73
2022/12/29 01:16:41;;;;;;;2.53;1.10;;;12.80;32.10;;;;;;4989477;28;20452;-73
2022/12/29 01:19:07;;;;;;;2.70;1.30;;;13.00;31.60;;;;;;4983157;28;20441;-73
2022/12/29 01:21:33;;;;;;;2.70;1.30;;;13.20;32.10;;;;;;4981438;28;20210;-74
2022/12/29 01:23:58;;;;;;;2.60;1.30;;;12.90;32.60;;;;;;4987075;28;20182;-74
2022/12/29 01:26:24;;;;;;;2.70;1.20;;;12.80;32.40;;;;;;4967710;28;20429;-75
2022/12/29 01:28:50;;;;;;;2.70;1.30;;;12.70;31.70;;;;;;4985233;28;20205;-75
2022/12/29 01:31:16;;;;;;;2.70;1.30;;;12.60;32.20;;;;;;4984438;28;20213;-75
2022/12/29 01:33:42;;;;;;;2.90;1.40;;;12.80;31.90;;;;;;4985164;28;20568;-74
2022/12/29 01:36:14;;;;;;;2.60;1.20;;;12.60;31.90;;;;;;4991223;28;20433;-73
2022/12/29 01:38:40;;;;;;;2.60;1.20;;;12.40;32.30;;;;;;4984413;28;20448;-73
2022/12/29 01:41:07;;;;;;;2.70;1.20;;;12.50;32.80;;;;;;4985493;28;20559;-73
2022/12/29 01:43:47;;;;;;;2.60;1.10;;;12.10;32.90;;;;;;4984802;28;20463;-74
2022/12/29 01:46:25;;;;;;;2.80;1.30;;;12.10;32.70;;;;;;4984632;28;20455;-73
2022/12/29 01:48:54;;;;;;;2.70;1.30;;;12.50;32.30;;;;;;4984342;28;20463;-73
2022/12/29 01:51:23;;;;;;;2.80;1.30;;;12.40;33.00;;;;;;4984260;28;20851;-73
2022/12/29 01:53:49;;;;;;;2.70;1.20;;;12.90;31.80;;;;;;4984988;28;20440;-73
2022/12/29 01:56:19;;;;;;;2.60;1.20;;;13.20;31.60;;;;;;4984723;28;20449;-73
2022/12/29 01:58:48;;;;;;;2.90;1.47;;;13.70;30.80;;;;;;4984618;28;20540;-74
2022/12/29 02:01:18;;;;;;;3.37;1.47;;;13.30;31.00;;;;;;4984210;28;21122;-74
2022/12/29 02:03:43;;;;;;;2.63;1.17;;;13.10;31.50;;;;;;4983699;28;20444;-73
2022/12/29 02:06:23;;;;;;;2.70;1.30;;;12.90;32.80;;;;;;4984111;28;20947;-73
2022/12/29 02:08:52;;;;;;;2.70;1.30;;;12.90;32.00;;;;;;4985278;28;20201;-73
2022/12/29 02:11:18;;;;;;;2.60;1.20;;;13.20;32.00;;;;;;4982868;28;20484;-73
2022/12/29 02:13:44;;;;;;;2.60;1.10;;;13.60;33.00;;;;;;4984864;28;20531;-73
2022/12/29 02:16:31;;;;;;;2.67;1.23;;;14.60;34.00;;;;;;4984628;28;20535;-73
2022/12/29 02:19:24;;;;;;;2.70;1.30;;;13.00;32.30;;;;;;4984931;28;20272;-73
2022/12/29 02:22:22;;;;;;;3.70;1.67;;;12.90;34.20;;;;;;4983146;28;20464;-73
2022/12/29 02:25:25;;;;;;;2.67;1.20;;;12.90;31.30;;;;;;4983371;28;20552;-73
2022/12/29 02:28:00;;;;;;;2.67;1.20;;;13.20;31.60;;;;;;4983453;28;20974;-73
2022/12/29 02:30:40;;;;;;;2.70;1.20;;;13.30;31.90;;;;;;4984333;28;20474;-73
2022/12/29 02:33:17;;;;;;;2.60;1.10;;;13.60;29.20;;;;;;4984741;28;20460;-73
2022/12/29 02:36:12;;;;;;;2.70;1.20;;;13.80;28.80;;;;;;4983371;28;20437;-73
2022/12/29 02:38:47;;;;;;;2.70;1.20;;;13.90;29.80;;;;;;4982520;28;20440;-74
2022/12/29 02:41:22;;;;;;;2.80;1.20;;;14.10;27.80;;;;;;4983558;28;20500;-74
2022/12/29 02:43:59;;;;;;;2.80;1.20;;;14.20;27.80;;;;;;4966253;28;20479;-73
2022/12/29 02:46:46;;;;;;;2.90;1.20;;;14.60;27.20;;;;;;4983689;28;20446;-75
2022/12/29 02:49:18;;;;;;;2.90;1.20;;;14.40;27.10;;;;;;4984145;28;20886;-74
2022/12/29 02:52:04;;;;;;;2.80;1.10;;;14.40;27.20;;;;;;4984002;28;20550;-73
2022/12/29 02:54:42;;;;;;;3.40;1.33;;;14.30;27.20;;;;;;4980888;28;20448;-73
2022/12/29 02:57:14;;;;;;;3.00;1.27;;;14.80;26.20;;;;;;4983348;28;20427;-74
2022/12/29 02:59:44;;;;;;;2.90;1.13;;;14.90;26.00;;;;;;4983855;28;20443;-74
2022/12/29 03:02:47;;;;;;;3.00;1.30;;;14.50;26.30;;;;;;4985148;28;20535;-74
2022/12/29 03:05:44;;;;;;;3.10;1.20;;;14.50;26.60;;;;;;4983544;28;20990;-74
2022/12/29 03:08:24;;;;;;;3.00;1.10;;;12.30;24.50;;;;;;4991803;28;20478;-73
2022/12/29 03:11:04;;;;;;;3.00;1.30;;;15.00;26.70;;;;;;4981422;28;20762;-74
2022/12/29 03:17:00;;;;;;;3.10;1.30;;;14.50;27.00;;;;;;4982011;28;20532;-73
2022/12/29 03:19:48;;;;;;;3.10;1.30;;;14.40;26.60;;;;;;4974194;28;20460;-72
2022/12/29 03:22:27;;;;;;;3.00;1.20;;;14.10;26.80;;;;;;4985328;28;20990;-73
2022/12/29 03:25:13;;;;;;;3.00;1.20;;;14.20;27.00;;;;;;4984762;28;20995;-73
2022/12/29 03:27:43;;;;;;;2.90;1.13;;;13.80;27.70;;;;;;4983615;28;20783;-73
2022/12/29 03:30:11;;;;;;;3.10;1.30;;;14.10;27.90;;;;;;4982736;28;20484;-73
2022/12/29 03:32:40;;;;;;;3.80;1.50;;;13.90;27.20;;;;;;4984838;28;20774;-74
2022/12/29 03:35:09;;;;;;;2.90;1.20;;;14.10;27.80;;;;;;4983942;28;20446;-73
2022/12/29 03:37:42;;;;;;;2.90;1.20;;;14.40;27.10;;;;;;4983068;28;22154;-73
2022/12/29 03:40:08;;;;;;;3.73;1.37;;;14.10;27.00;;;;;;4982902;28;20454;-73
2022/12/29 03:42:36;;;;;;;2.93;1.10;;;14.20;27.10;;;;;;4983357;28;20434;-73
2022/12/29 03:45:04;;;;;;;3.10;1.30;;;14.40;27.10;;;;;;4983312;28;20951;-73
2022/12/29 03:47:30;;;;;;;3.00;1.20;;;14.30;27.20;;;;;;4981944;28;20542;-74
2022/12/29 03:49:55;;;;;;;3.00;1.10;;;14.00;27.40;;;;;;4982698;28;20570;-73
2022/12/29 03:52:21;;;;;;;3.20;1.30;;;14.30;27.20;;;;;;4986780;28;20188;-73
2022/12/29 03:54:47;;;;;;;3.03;1.30;;;14.50;26.90;;;;;;4988776;28;20201;-74
2022/12/29 03:57:12;;;;;;;3.00;1.20;;;14.50;26.90;;;;;;4988810;28;20184;-73
2022/12/29 03:59:38;;;;;;;3.00;1.27;;;14.40;27.20;;;;;;4987414;28;20789;-73
2022/12/29 04:02:03;;;;;;;3.10;1.40;;;14.60;27.40;;;;;;4989634;28;20233;-73
2022/12/29 04:04:29;;;;;;;2.97;1.20;;;15.00;27.40;;;;;;4994593;28;20222;-74
2022/12/29 04:06:54;;;;;;;3.00;1.23;;;14.30;27.70;;;;;;4993689;28;20218;-73
2022/12/29 04:09:20;;;;;;;3.00;1.20;;;14.40;28.00;;;;;;4974834;28;20219;-73
2022/12/29 04:11:46;;;;;;;3.03;1.23;;;14.40;27.40;;;;;;4990789;28;21007;-74
2022/12/29 04:14:11;;;;;;;2.97;1.13;;;14.50;27.40;;;;;;4991431;28;20179;-73
2022/12/29 04:16:38;;;;;;;2.97;1.20;;;14.30;27.90;;;;;;4993444;28;20651;-74
2022/12/29 04:19:07;;;;;;;3.10;1.30;;;14.20;27.90;;;;;;4991437;28;20694;-74
2022/12/29 04:21:33;;;;;;;2.97;1.17;;;14.00;28.30;;;;;;4991151;28;20540;-73
2022/12/29 04:23:59;;;;;;;3.00;1.20;;;14.00;28.00;;;;;;4990315;28;20886;-73
2022/12/29 04:26:25;;;;;;;2.97;1.20;;;14.00;28.30;;;;;;4992279;28;20435;-73
2022/12/29 04:28:52;;;;;;;3.10;1.30;;;14.00;28.30;;;;;;4993673;28;21086;-75
2022/12/29 04:31:17;;;;;;;3.00;1.20;;;14.40;28.10;;;;;;4992033;28;20495;-75
2022/12/29 04:33:43;;;;;;;13.70;1.77;;;14.10;28.40;;;;;;4992110;28;20555;-74
2022/12/29 04:36:09;;;;;;;3.10;1.30;;;14.10;28.00;;;;;;4992467;28;20262;-73
2022/12/29 04:38:35;;;;;;;3.00;1.20;;;14.10;28.60;;;;;;4997827;28;20672;-73
2022/12/29 04:41:01;;;;;;;3.00;1.13;;;13.60;28.90;;;;;;4998269;28;20660;-73
2022/12/29 04:43:27;;;;;;;3.10;1.33;;;13.50;29.00;;;;;;4988970;28;20559;-73
2022/12/29 04:45:53;;;;;;;3.10;1.30;;;13.80;28.80;;;;;;4988933;28;20506;-73
2022/12/29 04:48:19;;;;;;;3.00;1.20;;;13.70;28.80;;;;;;4993072;28;20460;-74
2022/12/29 04:50:48;;;;;;;3.10;1.40;;;14.00;30.00;;;;;;4992215;28;20280;-73
2022/12/29 04:53:14;;;;;;;2.90;1.10;;;14.60;28.40;;;;;;4991504;28;20211;-74
2022/12/29 04:55:39;;;;;;;3.00;1.20;;;14.30;28.00;;;;;;4991178;28;20927;-74
2022/12/29 04:58:05;;;;;;;3.20;1.33;;;14.40;27.70;;;;;;4991956;28;20193;-73
2022/12/29 05:00:30;;;;;;;3.10;1.30;;;14.50;28.00;;;;;;4990506;28;20216;-74
2022/12/29 05:02:56;;;;;;;3.07;1.30;;;14.10;28.00;;;;;;4988531;28;20667;-74
2022/12/29 05:05:22;;;;;;;2.90;1.10;;;14.00;28.20;;;;;;4991195;28;20196;-73
2022/12/29 05:07:47;;;;;;;3.13;1.40;;;14.10;28.30;;;;;;4993581;28;20193;-73
2022/12/29 05:10:13;;;;;;;3.00;1.20;;;13.90;28.30;;;;;;4991809;28;20546;-74
2022/12/29 05:12:39;;;;;;;2.97;1.10;;;14.20;28.10;;;;;;4984542;28;20218;-73
2022/12/29 05:15:06;;;;;;;3.17;1.40;;;14.40;27.90;;;;;;4985691;28;20551;-73
2022/12/29 05:17:32;;;;;;;5.10;1.97;;;14.50;27.40;;;;;;4982937;28;20188;-73
2022/12/29 05:19:58;;;;;;;3.20;1.40;;;14.20;27.90;;;;;;4984574;28;21908;-74
2022/12/29 05:22:23;;;;;;;3.87;1.60;;;14.00;28.30;;;;;;4985121;28;20188;-73
2022/12/29 05:24:49;;;;;;;3.20;1.40;;;14.70;28.00;;;;;;4985345;28;20440;-74
2022/12/29 05:27:14;;;;;;;3.00;1.20;;;14.30;28.00;;;;;;4984590;28;20194;-74
2022/12/29 05:29:40;;;;;;;3.50;1.40;;;14.60;27.80;;;;;;4983780;28;20207;-73
2022/12/29 05:32:06;;;;;;;3.00;1.20;;;14.60;28.00;;;;;;4984625;28;20189;-73
2022/12/29 05:34:31;;;;;;;3.40;1.63;;;14.30;27.80;;;;;;4985762;28;20650;-73
2022/12/29 05:36:57;;;;;;;3.00;1.20;;;14.10;28.20;;;;;;4984956;28;20267;-74
2022/12/29 05:39:22;;;;;;;3.07;1.30;;;14.10;28.40;;;;;;4983953;28;20257;-72
2022/12/29 05:41:48;;;;;;;3.00;1.30;;;14.20;28.20;;;;;;4985044;28;20254;-73
2022/12/29 05:44:14;;;;;;;3.00;1.23;;;14.10;28.40;;;;;;4985904;28;20280;-73
2022/12/29 05:46:39;;;;;;;2.90;1.10;;;14.10;28.70;;;;;;4984654;28;20189;-73
2022/12/29 05:49:05;;;;;;;3.00;1.23;;;14.10;28.70;;;;;;4984067;28;20278;-73
2022/12/29 05:51:31;;;;;;;3.07;1.30;;;14.20;28.70;;;;;;4984214;28;20252;-73
2022/12/29 05:53:57;;;;;;;3.03;1.30;;;14.20;28.70;;;;;;4985433;28;20436;-72
2022/12/29 05:56:23;;;;;;;3.00;1.20;;;14.10;29.00;;;;;;4983626;28;20192;-73
2022/12/29 05:58:48;;;;;;;3.10;1.30;;;13.90;29.40;;;;;;4984902;28;20224;-74
2022/12/29 06:01:14;;;;;;;3.10;1.30;;;14.80;29.20;;;;;;4984030;28;20205;-74
2022/12/29 06:03:39;;;;;;;3.83;1.60;;;14.50;28.50;;;;;;4985242;28;20549;-73
2022/12/29 06:06:05;;;;;;;3.00;1.20;;;14.60;29.50;;;;;;4984817;28;20185;-74
2022/12/29 06:08:31;;;;;;;3.10;1.33;;;14.00;29.40;;;;;;4985338;28;20235;-75
2022/12/29 06:10:56;;;;;;;3.10;1.30;;;14.10;29.50;;;;;;4995711;28;20278;-72
2022/12/29 06:13:22;;;;;;;3.10;1.33;;;15.00;29.20;;;;;;4991624;28;20203;-73
2022/12/29 06:15:49;;;;;;;3.00;1.27;;;14.30;29.40;;;;;;4987249;28;20180;-73
2022/12/29 06:18:15;;;;;;;3.00;1.30;;;14.20;29.50;;;;;;4990441;28;20185;-73
2022/12/29 06:20:40;;;;;;;4.00;1.60;;;14.30;30.40;;;;;;4991057;28;20502;-74
2022/12/29 06:23:06;;;;;;;2.90;1.20;;;14.40;29.50;;;;;;4991689;28;20433;-73
2022/12/29 06:25:33;;;;;;;2.93;1.17;;;14.30;29.50;;;;;;4990346;28;20191;-74
2022/12/29 06:27:59;;;;;;;3.00;1.20;;;14.70;29.30;;;;;;4968043;28;20201;-76
2022/12/29 06:30:24;;;;;;;3.77;1.53;;;14.80;29.10;;;;;;4986871;28;21001;-74
2022/12/29 06:32:51;;;;;;;2.90;1.10;;;14.90;28.70;;;;;;4990868;28;20184;-74
2022/12/29 06:35:16;;;;;;;3.20;1.30;;;15.20;28.30;;;;;;4987375;28;20269;-75
2022/12/29 06:37:43;;;;;;;2.97;1.20;;;14.90;28.70;;;;;;4983642;28;20533;-74
2022/12/29 06:40:09;;;;;;;3.00;1.30;;;14.60;28.80;;;;;;4989558;28;20216;-74
2022/12/29 06:42:35;;;;;;;3.00;1.30;;;14.60;29.30;;;;;;4984355;28;20875;-74
2022/12/29 06:45:01;;;;;;;3.20;1.50;;;14.70;29.20;;;;;;4983388;28;20477;-75
2022/12/29 06:47:26;;;;;;;3.00;1.20;;;14.70;28.80;;;;;;4983617;28;20192;-74
2022/12/29 06:49:52;;;;;;;2.90;1.20;;;15.30;29.90;;;;;;4984723;28;20882;-74
2022/12/29 06:52:18;;;;;;;3.00;1.23;;;14.30;29.60;;;;;;4984507;28;20234;-74
2022/12/29 06:54:43;;;;;;;2.90;1.17;;;14.50;29.50;;;;;;4983471;28;20267;-75
2022/12/29 06:57:09;;;;;;;3.00;1.30;;;15.00;29.60;;;;;;4984491;28;20666;-74
2022/12/29 06:59:34;;;;;;;3.20;1.50;;;14.50;29.30;;;;;;4983532;28;20193;-74
2022/12/29 07:02:01;;;;;;;2.90;1.20;;;14.80;29.00;;;;;;4984229;28;20224;-75
2022/12/29 07:04:28;;;;;;;3.53;1.40;;;14.70;28.90;;;;;;4984215;28;20289;-74
2022/12/29 07:06:54;;;;;;;3.10;1.30;;;14.80;28.90;;;;;;4965084;28;20451;-75
2022/12/29 07:09:20;;;;;;;3.00;1.20;;;15.10;28.80;;;;;;4984501;28;20468;-77
2022/12/29 07:11:45;;;;;;;4.07;1.67;;;15.40;28.50;;;;;;4987229;28;20214;-78
2022/12/29 07:14:11;;;;;;;3.00;1.30;;;15.10;28.80;;;;;;4992781;28;20182;-77
2022/12/29 07:16:37;;;;;;;2.90;1.20;;;15.30;28.20;;;;;;4996024;28;20194;-77
2022/12/29 07:19:03;;;;;;;3.10;1.40;;;15.20;28.30;;;;;;4995910;28;20440;-78
2022/12/29 07:21:29;;;;;;;2.90;1.10;;;15.20;29.00;;;;;;4991913;28;20465;-77
2022/12/29 07:23:55;;;;;;;2.93;1.30;;;15.00;29.00;;;;;;4992576;28;20193;-78
2022/12/29 07:26:20;;;;;;;2.93;1.20;;;14.90;28.90;;;;;;4995992;28;20193;-77
2022/12/29 07:28:46;;;;;;;3.00;1.30;;;14.80;29.00;;;;;;5004892;28;20455;-79
2022/12/29 07:31:16;;;;;;;3.00;1.30;;;14.80;29.10;;;;;;4993189;28;20204;-77
2022/12/29 07:33:43;;;;;;;2.93;1.13;;;14.80;29.40;;;;;;4993003;28;20241;-79
2022/12/29 07:36:09;;;;;;;3.10;1.40;;;15.40;28.20;;;;;;4994732;28;20592;-78
2022/12/29 07:38:35;;;;;;;2.90;1.10;;;15.00;29.00;;;;;;4988590;28;20441;-78
2022/12/29 07:41:00;;;;;;;3.00;1.30;;;15.00;29.00;;;;;;4993847;28;20485;-78
2022/12/29 07:43:26;;;;;;;2.90;1.13;;;14.70;29.20;;;;;;5003586;28;20194;-75
2022/12/29 07:45:52;;;;;;;2.90;1.20;;;14.70;29.30;;;;;;4992006;28;20195;-74
2022/12/29 07:48:18;;;;;;;2.90;1.20;;;15.00;28.90;;;;;;4986690;28;20567;-75
2022/12/29 07:50:43;;;;;;;4.30;1.67;;;15.20;28.50;;;;;;4993889;28;20605;-73
2022/12/29 07:53:09;;;;;;;2.97;1.20;;;15.10;28.70;;;;;;4994476;28;20188;-74
2022/12/29 07:55:34;;;;;;;4.07;1.63;;;15.00;28.90;;;;;;4993850;28;20190;-74
2022/12/29 07:58:00;;;;;;;3.00;1.20;;;15.10;28.60;;;;;;4995117;28;20298;-74
2022/12/29 08:00:26;;;;;;;3.30;1.50;;;15.20;28.50;;;;;;4989316;28;20240;-75
2022/12/29 08:02:51;;;;;;;2.90;1.20;;;15.20;28.30;;;;;;4990731;28;20272;-75
2022/12/29 08:05:17;;;;;;;2.90;1.20;;;15.40;28.10;;;;;;4995021;28;20211;-73
2022/12/29 08:07:44;;;;;;;3.10;1.40;;;15.60;27.60;;;;;;4994757;28;20629;-74
2022/12/29 08:10:11;;;;;;;2.90;1.10;;;15.60;27.40;;;;;;4984471;28;20480;-74
2022/12/29 08:12:38;;;;;;;2.93;1.20;;;15.40;27.90;;;;;;4992681;28;20500;-75
2022/12/29 08:15:05;;;;;;;4.17;1.40;;;15.40;27.60;;;;;;4986059;28;20437;-75
2022/12/29 08:17:31;;;;;;;3.00;1.23;;;15.20;27.50;;;;;;4989737;28;20800;-74
2022/12/29 08:19:56;;;;;;;3.10;1.40;;;15.20;27.80;;;;;;4990530;28;20416;-74
2022/12/29 08:22:22;;;;;;;2.90;1.20;;;15.00;27.70;;;;;;4992175;28;20299;-73
2022/12/29 08:24:48;;;;;;;2.90;1.27;;;15.00;27.60;;;;;;4975928;28;20192;-75
2022/12/29 08:27:14;;;;;;;2.90;1.10;;;15.10;27.50;;;;;;4977341;28;20428;-75
2022/12/29 08:29:39;;;;;;;3.00;1.30;;;15.10;27.90;;;;;;4994263;28;20204;-73
2022/12/29 08:32:06;;;;;;;2.90;1.20;;;15.40;27.40;;;;;;4992011;28;20689;-75
2022/12/29 08:34:32;;;;;;;2.90;1.20;;;15.70;26.80;;;;;;4985937;28;20205;-72
2022/12/29 08:36:58;;;;;;;2.90;1.10;;;16.00;27.00;;;;;;4990810;28;20447;-74
2022/12/29 08:39:24;;;;;;;3.47;1.30;;;15.90;26.60;;;;;;4984380;28;20933;-74
2022/12/29 08:41:49;;;;;;;2.77;1.10;;;16.10;26.10;;;;;;4968529;28;20827;-73
2022/12/29 08:44:15;;;;;;;3.00;1.30;;;15.90;26.80;;;;;;4987226;28;20434;-74
2022/12/29 08:46:41;;;;;;;3.00;1.33;;;16.00;26.50;;;;;;4993403;28;20173;-74
2022/12/29 08:49:06;;;;;;;2.80;1.20;;;16.10;26.20;;;;;;4994325;28;20202;-77
2022/12/29 08:51:32;;;;;;;2.90;1.20;;;16.40;26.00;;;;;;4988981;28;20623;-74
2022/12/29 08:53:59;;;;;;;2.70;1.10;;;16.30;25.90;;;;;;4991691;28;20257;-75
2022/12/29 08:56:24;;;;;;;2.90;1.13;;;16.30;25.90;;;;;;4993811;28;20569;-75
2022/12/29 08:58:51;;;;;;;2.80;1.10;;;16.20;26.30;;;;;;4993033;28;20444;-74
2022/12/29 09:01:17;;;;;;;3.07;1.30;;;16.20;26.80;;;;;;4990787;28;20206;-74
2022/12/29 09:03:42;;;;;;;2.90;1.20;;;16.00;27.10;;;;;;4994362;28;20443;-75
2022/12/29 09:06:08;;;;;;;2.80;1.10;;;15.70;27.30;;;;;;4994071;28;20260;-75
2022/12/29 09:08:34;;;;;;;2.80;1.10;;;15.70;27.80;;;;;;4989988;28;20202;-75
2022/12/29 09:11:11;;;;;;;3.00;1.30;;;15.70;27.80;;;;;;4987386;28;20464;-74
2022/12/29 09:13:37;;;;;;;2.90;1.20;;;15.60;27.60;;;;;;4989103;28;20182;-75
2022/12/29 09:16:02;;;;;;;2.80;1.10;;;15.20;28.30;;;;;;4993027;28;20428;-73
2022/12/29 09:18:28;;;;;;;3.00;1.30;;;15.10;28.80;;;;;;4993462;28;20174;-74
2022/12/29 09:21:04;;;;;;;2.80;1.10;;;15.20;28.80;;;;;;4993784;28;20446;-74
2022/12/29 09:23:31;;;;;;;3.10;1.40;;;14.90;29.80;;;;;;4988683;28;20237;-74
2022/12/29 09:25:57;;;;;;;3.83;1.77;;;15.00;29.60;;;;;;4988651;28;20441;-75
2022/12/29 09:28:23;;;;;;;3.83;1.60;;;15.20;29.60;;;;;;4987093;28;20462;-76
2022/12/29 09:30:49;;;;;;;3.10;1.40;;;15.20;29.40;;;;;;4991971;28;20439;-72
2022/12/29 09:33:15;;;;;;;3.00;1.40;;;15.10;29.70;;;;;;4991120;28;20912;-72
2022/12/29 09:35:45;;;;;;;3.00;1.37;;;15.10;29.50;;;;;;4988905;28;20960;-72
2022/12/29 09:38:11;;;;;;;4.43;1.97;;;15.40;29.20;;;;;;4988706;28;20437;-75
2022/12/29 09:40:38;;;;;;;2.87;1.20;;;15.70;28.90;;;;;;4991508;28;20445;-74
2022/12/29 09:43:20;;;;;;;2.90;1.10;;;15.70;28.50;;;;;;4991050;28;20416;-75
2022/12/29 09:45:57;;;;;;;3.07;1.40;;;15.80;28.40;;;;;;4988322;28;20449;-75
2022/12/29 09:48:27;;;;;;;2.93;1.30;;;15.70;29.10;;;;;;4991375;28;20991;-74
2022/12/29 09:50:57;;;;;;;3.00;1.30;;;15.70;28.80;;;;;;4992403;28;20487;-75
2022/12/29 09:53:34;;;;;;;3.60;1.60;;;15.90;28.50;;;;;;4993357;28;20489;-75
2022/12/29 09:56:01;;;;;;;3.00;1.30;;;16.20;28.10;;;;;;4991440;28;20440;-75
2022/12/29 09:58:39;;;;;;;2.90;1.27;;;16.00;28.50;;;;;;4991187;28;20550;-74
2022/12/29 10:01:07;;;;;;;2.80;1.10;;;15.70;28.70;;;;;;4989166;28;20452;-74
2022/12/29 10:03:49;;;;;;;2.80;1.10;;;15.60;28.80;;;;;;4993070;28;21006;-74
2022/12/29 10:06:45;;;;;;;2.90;1.20;;;15.80;28.90;;;;;;4988924;28;20490;-78
2022/12/29 10:09:29;;;;;;;4.07;1.50;;;16.00;28.40;;;;;;4978349;28;20465;-74
2022/12/29 10:12:25;;;;;;;2.90;1.30;;;15.60;28.80;;;;;;4983500;28;20449;-74
2022/12/29 10:14:54;;;;;;;3.10;1.40;;;15.50;29.30;;;;;;4991942;28;20754;-74
2022/12/29 10:17:22;;;;;;;2.80;1.17;;;15.70;29.20;;;;;;4987477;28;20850;-74
2022/12/29 10:20:14;;;;;;;2.90;1.23;;;15.90;28.60;;;;;;4991313;28;20424;-74
2022/12/29 10:23:00;;;;;;;2.90;1.30;;;16.10;28.40;;;;;;4989107;28;20428;-74
2022/12/29 10:25:31;;;;;;;3.20;1.50;;;15.70;29.20;;;;;;4990286;28;20413;-75
2022/12/29 10:28:03;;;;;;;2.90;1.10;;;15.70;29.10;;;;;;4990327;28;20479;-75
2022/12/29 10:30:29;;;;;;;2.90;1.30;;;16.00;28.90;;;;;;4990990;28;20437;-75
2022/12/29 10:32:58;;;;;;;2.90;1.17;;;16.00;28.70;;;;;;4990895;28;20488;-74
2022/12/29 10:35:28;;;;;;;2.90;1.20;;;15.50;29.70;;;;;;4990673;28;20454;-75
2022/12/29 10:38:01;;;;;;;2.90;1.20;;;15.60;29.80;;;;;;4990369;28;20962;-74
2022/12/29 10:40:51;;;;;;;2.90;1.20;;;15.40;30.00;;;;;;4990812;28;20559;-73
2022/12/29 10:43:36;;;;;;;2.97;1.27;;;14.90;30.50;;;;;;4990851;28;20465;-73
2022/12/29 10:46:10;;;;;;;3.00;1.30;;;14.60;32.10;;;;;;4989512;28;20409;-75
2022/12/29 10:48:36;;;;;;;2.90;1.30;;;14.90;31.40;;;;;;4996001;28;20460;-74
2022/12/29 10:51:05;;;;;;;2.90;1.20;;;15.00;31.30;;;;;;4990449;28;20457;-74
2022/12/29 10:53:43;;;;;;;2.90;1.20;;;14.60;32.60;;;;;;4990556;28;20408;-74
2022/12/29 10:56:32;;;;;;;3.00;1.30;;;14.50;32.20;;;;;;4989190;28;20513;-76
2022/12/29 10:59:03;;;;;;;3.00;1.30;;;14.80;32.60;;;;;;4984342;28;20528;-75
2022/12/29 11:01:36;;;;;;;2.87;1.20;;;15.00;32.00;;;;;;4994153;28;20550;-75
2022/12/29 11:04:26;;;;;;;2.90;1.30;;;15.00;31.90;;;;;;4993213;28;20484;-73
2022/12/29 11:06:51;;;;;;;2.90;1.10;;;15.20;31.70;;;;;;4994948;28;20415;-74
2022/12/29 11:09:29;;;;;;;3.00;1.23;;;14.90;31.70;;;;;;4995124;28;20455;-74
2022/12/29 11:11:55;;;;;;;3.33;1.40;;;14.90;32.40;;;;;;4994389;28;20267;-74
2022/12/29 11:14:29;;;;;;;2.87;1.20;;;15.00;32.60;;;;;;4993587;28;20906;-74
2022/12/29 11:17:00;;;;;;;3.00;1.30;;;14.60;34.40;;;;;;4992046;28;20161;-74
2022/12/29 11:19:28;;;;;;;3.00;1.30;;;15.10;33.80;;;;;;4992760;28;20524;-74
2022/12/29 11:21:54;;;;;;;3.60;1.33;;;14.90;34.80;;;;;;4993781;28;20428;-73
2022/12/29 11:24:25;;;;;;;3.00;1.20;;;15.10;34.60;;;;;;4993191;28;20562;-73
2022/12/29 11:26:57;;;;;;;3.00;1.23;;;14.50;38.10;;;;;;4992321;28;20802;-75
2022/12/29 11:29:37;;;;;;;2.90;1.10;;;14.20;39.40;;;;;;4978596;28;20820;-73
2022/12/29 11:32:12;;;;;;;3.00;1.30;;;14.10;39.90;;;;;;4990065;28;21022;-74
2022/12/29 11:34:38;;;;;;;3.03;1.30;;;14.80;38.60;;;;;;4990755;28;20799;-73
2022/12/29 11:37:09;;;;;;;3.30;1.40;;;15.30;39.00;;;;;;4994413;28;20432;-74
2022/12/29 11:40:05;;;;;;;3.60;1.57;;;15.10;38.20;;;;;;4994647;28;20788;-74
2022/12/29 11:42:46;;;;;;;3.10;1.40;;;14.80;38.10;;;;;;4987956;28;20437;-73
2022/12/29 11:45:19;;;;;;;3.30;1.57;;;15.10;37.60;;;;;;4987137;28;20444;-73
2022/12/29 11:47:50;;;;;;;2.90;1.10;;;14.60;38.30;;;;;;4987692;28;21166;-74
2022/12/29 11:50:31;;;;;;;2.90;1.13;;;14.60;38.60;;;;;;4991435;28;20481;-74
2022/12/29 11:53:11;;;;;;;2.90;1.20;;;15.10;37.10;;;;;;4993165;28;20520;-73
2022/12/29 11:55:37;;;;;;;3.07;1.40;;;15.70;35.70;;;;;;4989203;28;20432;-75
2022/12/29 11:58:04;;;;;;;6.00;1.60;;;16.10;34.80;;;;;;4994069;28;20439;-73
2022/12/29 12:00:34;;;;;;;6.30;1.57;;;16.30;33.30;;;;;;4992466;28;20829;-74
2022/12/29 12:03:19;;;;;;;3.40;1.70;;;16.10;34.20;;;;;;4991849;28;20431;-74
2022/12/29 12:06:01;;;;;;;2.90;1.10;;;15.80;34.10;;;;;;4991284;28;21017;-75
2022/12/29 12:08:29;;;;;;;3.80;1.40;;;15.60;35.00;;;;;;4988691;28;20961;-73
2022/12/29 12:11:20;;;;;;;3.03;1.30;;;15.00;36.60;;;;;;4982321;28;20458;-74
2022/12/29 12:14:06;;;;;;;2.90;1.10;;;14.20;39.10;;;;;;4992551;28;20461;-73
2022/12/29 12:16:37;;;;;;;3.00;1.20;;;14.10;39.30;;;;;;4983198;28;20461;-73
2022/12/29 12:19:40;;;;;;;3.10;1.30;;;14.20;40.20;;;;;;4993096;28;20440;-72
2022/12/29 12:22:17;;;;;;;3.00;1.20;;;14.40;40.30;;;;;;4985237;28;20460;-73
2022/12/29 12:24:59;;;;;;;4.70;1.60;;;15.00;40.80;;;;;;4980527;28;20434;-75
2022/12/29 12:27:34;;;;;;;3.00;1.27;;;15.60;37.60;;;;;;4990229;28;20440;-74
2022/12/29 12:30:17;;;;;;;3.10;1.30;;;14.70;40.10;;;;;;4988587;28;20456;-74
2022/12/29 12:32:55;;;;;;;3.00;1.23;;;14.30;41.70;;;;;;4988441;28;20432;-73
2022/12/29 12:35:34;;;;;;;3.00;1.20;;;14.20;44.10;;;;;;4988825;28;20429;-74
2022/12/29 12:38:02;;;;;;;3.00;1.20;;;14.20;43.20;;;;;;4991500;28;20460;-74
2022/12/29 12:40:45;;;;;;;3.00;1.20;;;14.50;43.30;;;;;;4980845;28;20458;-75
2022/12/29 12:43:32;;;;;;;2.97;1.20;;;15.10;41.00;;;;;;4991300;28;20428;-74
2022/12/29 12:46:29;;;;;;;3.80;1.73;;;14.50;41.10;;;;;;4993051;28;20429;-74
2022/12/29 12:49:13;;;;;;;3.10;1.30;;;14.40;42.40;;;;;;4989519;28;20457;-73
2022/12/29 12:51:55;;;;;;;2.90;1.10;;;14.50;41.80;;;;;;4986999;28;20436;-73
2022/12/29 12:54:38;;;;;;;3.00;1.20;;;14.30;42.70;;;;;;4992481;28;20424;-74
2022/12/29 12:57:22;;;;;;;3.10;1.40;;;15.00;40.80;;;;;;4985125;28;20932;-74
2022/12/29 13:00:17;;;;;;;2.93;1.20;;;15.30;39.50;;;;;;4993500;28;20939;-74
2022/12/29 13:03:07;;;;;;;2.90;1.20;;;14.90;39.30;;;;;;4985754;28;20812;-74
2022/12/29 13:05:45;;;;;;;3.00;1.20;;;14.90;40.00;;;;;;4987690;28;20416;-74
2022/12/29 13:08:32;;;;;;;3.73;1.43;;;15.10;39.90;;;;;;4985579;28;20420;-74
2022/12/29 13:11:16;;;;;;;3.00;1.20;;;15.00;39.40;;;;;;4992433;28;20825;-73
2022/12/29 13:14:12;;;;;;;3.00;1.20;;;14.80;39.70;;;;;;4987257;28;20467;-75
2022/12/29 13:17:17;;;;;;;3.20;1.87;;;14.80;39.80;;;;;;4990361;28;20437;-75
2022/12/29 13:20:18;;;;;;;3.00;1.30;;;14.70;40.30;;;;;;4990150;28;20449;-74
2022/12/29 13:23:11;;;;;;;3.00;1.20;;;14.60;40.00;;;;;;4985041;28;21086;-73
2022/12/29 13:26:00;;;;;;;3.00;1.23;;;15.20;38.80;;;;;;4986114;28;20947;-73
2022/12/29 13:28:49;;;;;;;3.00;1.20;;;14.80;40.10;;;;;;4989440;28;20918;-74
2022/12/29 13:31:20;;;;;;;3.10;1.30;;;15.10;39.10;;;;;;4987752;28;20452;-74
2022/12/29 13:34:11;;;;;;;2.90;1.10;;;15.20;39.70;;;;;;5081934;22;20513;-75
2022/12/29 13:36:43;;;;;;;3.00;1.30;;;15.30;39.30;;;;;;5021453;28;20488;-74
2022/12/29 13:39:24;;;;;;;3.50;1.30;;;15.20;39.10;;;;;;5025167;28;20517;-74
2022/12/29 13:41:52;;;;;;;2.90;1.20;;;15.60;37.60;;;;;;5024737;28;20941;-74